createdAt,value
2022-09-15T00:08:08.817Z,2.83
2022-09-15T00:18:10.599Z,2.83
2022-09-15T00:28:13.775Z,3.20
2022-09-15T00:38:17.325Z,2.87
2022-09-15T00:48:22.287Z,2.80
2022-09-15T00:58:30.681Z,3.70
2022-09-15T01:08:44.607Z,3.63
2022-09-15T01:19:07.497Z,3.20
2022-09-15T01:29:27.854Z,3.40
2022-09-15T01:39:35.004Z,3.40
2022-09-15T01:49:42.603Z,4.60
2022-09-15T01:59:44.573Z,3.90
2022-09-15T02:10:11.640Z,3.73
2022-09-15T02:20:23.782Z,4.30
2022-09-15T02:30:26.679Z,4.10
2022-09-15T02:40:29.087Z,8.37
2022-09-15T02:50:31.129Z,7.10
2022-09-15T03:00:32.879Z,3.47
2022-09-15T03:10:34.741Z,3.33
2022-09-15T03:20:36.316Z,2.83
2022-09-15T03:30:37.895Z,2.97
2022-09-15T03:40:39.464Z,5.73
2022-09-15T03:50:41.093Z,2.97
2022-09-15T04:00:42.895Z,2.93
2022-09-15T04:10:44.644Z,2.43
2022-09-15T04:20:46.705Z,2.10
2022-09-15T04:30:48.121Z,2.83
2022-09-15T04:40:51.505Z,3.80
2022-09-15T04:50:53.614Z,2.60
2022-09-15T05:00:55.300Z,1.93
2022-09-15T05:11:04.450Z,4.53
2022-09-15T05:21:07.561Z,2.00
2022-09-15T05:31:34.046Z,2.20
2022-09-15T05:41:35.597Z,2.97
2022-09-15T05:51:37.165Z,2.27
2022-09-15T06:01:38.641Z,2.17
2022-09-15T06:11:40.154Z,2.30
2022-09-15T06:21:41.713Z,4.40
2022-09-15T06:31:43.245Z,6.63
2022-09-15T06:42:01.842Z,3.43
2022-09-15T06:52:05.114Z,2.13
2022-09-15T07:02:06.650Z,1.90
2022-09-15T07:12:08.210Z,2.43
2022-09-15T07:22:11.889Z,2.10
2022-09-15T07:32:13.344Z,3.03
2022-09-15T07:42:15.517Z,1.27
2022-09-15T07:52:17.076Z,3.23
2022-09-15T08:02:20.593Z,1.53
2022-09-15T08:12:22.111Z,3.87
2022-09-15T08:22:23.665Z,1.73
2022-09-15T08:32:25.633Z,1.70
2022-09-15T08:42:29.389Z,1.77
2022-09-15T08:52:58.121Z,1.63
2022-09-15T09:03:08.800Z,3.03
2022-09-15T09:13:24.257Z,1.67
2022-09-15T09:23:29.679Z,5.07
2022-09-15T09:33:47.971Z,2.17
2022-09-15T09:43:50.084Z,1.37
2022-09-15T09:53:56.413Z,1.37
2022-09-15T10:04:13.339Z,1.50
2022-09-15T10:14:30.296Z,1.87
2022-09-15T10:24:50.593Z,1.47
2022-09-15T10:35:04.426Z,1.77
2022-09-15T10:45:39.184Z,1.67
2022-09-15T10:55:52.697Z,1.73
2022-09-15T11:06:17.396Z,1.40
2022-09-15T11:17:00.511Z,1.13
2022-09-15T11:27:20.020Z,1.43
2022-09-15T11:37:26.519Z,0.87
2022-09-15T11:47:36.533Z,0.90
2022-09-15T11:58:16.374Z,1.50
2022-09-15T12:08:29.524Z,1.00
2022-09-15T12:18:49.839Z,2.50
2022-09-15T12:29:14.999Z,0.80
2022-09-15T12:39:30.151Z,1.90
2022-09-15T12:49:42.780Z,0.87
2022-09-15T12:59:44.566Z,1.03
2022-09-15T13:09:58.181Z,0.70
2022-09-15T13:20:08.712Z,1.13
2022-09-15T13:30:30.946Z,3.43
2022-09-15T13:40:44.995Z,1.10
2022-09-15T13:51:00.077Z,1.63
2022-09-15T14:01:04.992Z,1.50
2022-09-15T14:11:12.970Z,1.47
2022-09-15T14:21:19.909Z,1.90
2022-09-15T14:31:43.422Z,1.80
2022-09-15T14:41:45.978Z,1.60
2022-09-15T14:51:51.500Z,1.43
2022-09-15T15:02:17.321Z,1.27
2022-09-15T15:12:32.030Z,2.13
2022-09-15T15:22:34.162Z,2.60
2022-09-15T15:32:35.945Z,2.40
2022-09-15T15:42:37.361Z,3.23
2022-09-15T15:52:38.931Z,3.10
2022-09-15T16:02:40.469Z,4.23
2022-09-15T16:12:42.152Z,3.53
2022-09-15T16:22:43.833Z,4.00
2022-09-15T16:32:45.259Z,3.40
2022-09-15T16:42:47.587Z,3.77
2022-09-15T16:52:49.074Z,3.93
2022-09-15T17:02:50.590Z,3.57
2022-09-15T17:12:52.325Z,4.47
2022-09-15T17:22:54.883Z,3.97
2022-09-15T17:33:10.542Z,4.73
2022-09-15T17:43:24.208Z,5.83
2022-09-15T17:53:26.801Z,5.60
2022-09-15T18:03:34.773Z,9.90
2022-09-15T18:13:37.265Z,5.30
2022-09-15T18:23:39.125Z,4.20
2022-09-15T18:33:40.991Z,4.20
2022-09-15T18:43:43.643Z,4.47
2022-09-15T18:53:45.065Z,4.63
2022-09-15T19:03:46.580Z,4.87
2022-09-15T19:13:48.033Z,3.83
2022-09-15T19:23:49.456Z,5.30
2022-09-15T19:33:51.501Z,5.00
2022-09-15T19:43:53.117Z,5.40
2022-09-15T19:53:56.005Z,6.00
2022-09-15T20:03:57.416Z,6.40
2022-09-15T20:13:59.886Z,6.40
2022-09-15T20:24:02.533Z,7.10
2022-09-15T20:34:04.028Z,6.50
2022-09-15T20:44:09.258Z,6.57
2022-09-15T20:54:11.224Z,5.80
2022-09-15T21:04:12.750Z,7.13
2022-09-15T21:14:14.668Z,6.43
2022-09-15T21:24:17.042Z,37.23
2022-09-15T21:34:18.545Z,40.77
2022-09-15T21:44:20.002Z,11.53
2022-09-15T21:54:21.649Z,12.27
2022-09-15T22:04:23.631Z,11.20
2022-09-15T22:14:26.513Z,13.83
2022-09-15T22:24:29.502Z,12.10
2022-09-15T22:34:31.025Z,13.40
2022-09-15T22:44:32.813Z,13.20
2022-09-15T22:54:34.542Z,14.70
2022-09-15T23:04:36.557Z,14.50
2022-09-15T23:14:38.019Z,14.13
2022-09-15T23:24:39.439Z,16.17
2022-09-15T23:34:40.861Z,18.53
2022-09-15T23:44:42.310Z,19.50
2022-09-15T23:54:44.290Z,16.93
